Startpagina
METAR-TAF:

METAR-TAF

Vliegvelden :

Kugaaruk, Nunavut, Canada

breedte: 68-32N, lengte: 089-49W, hoogte: 15 m

Actueel weer

Dit bericht is 10 uur en het 19 minuten geleden gemaakt, om 00:00 UTC
Wind 6 kt uit het westzuidwesten
Temperatuur -25°C
Vochtigheid 76%
Druk 1043 hPa
Zicht: 24.1 km
Weinig wolken op 2500 ft

METAR: CYBB 050000Z 24006KT 15SM FEW025 M25/M28 A3080 RMK SC1 SC TR 0.0/LAST STFD OBS/NXT 051700Z SLP435

Tijdstip: 04:19 (10:19 UTC)

Verwachting

Dit bericht is 15 uur en het 41 minuten geleden gemaakt, om 18:38 UTC
Verwachting geldig van 04 om 19 UTC tot 04 om 24 UTC
Wind 3 kt uit variabele richting
Zicht: 10 km
Onbewolkt

TAF: CYBB 041838Z 0419/0424 VRB03KT P6SM SKC RMK NXT FCST WILL BE ISSUED AT 051845Z

Waarnemingen en weersverwachtingen van meer dan 4000 vliegvelden (METAR en TAF).

De beschikbare stations zijn de gele en rode punten op de kaart.

Ga met uw muis naar het station om de naam te zien.

Klik dan om waarnemingen en weersverwachtingen te zien.

kaart wijzigen: klik op de groene knoppen met een zwart kruis om in te zoomen, op de groene knop met een streepje om uit te zoomen of op de groene pijlen voor aangrenzende kaarten.


METAR-TAF: